Time;durP1;ratioP1;P1;durP2;ratioP2;P2;SDS_P1;SDS_P2;PMS_P1;PMS_P2;Temp;Humidity;BMP_temperature;BMP_pressure;BME280_temperature;BME280_humidity;BME280_pressure;Samples;Min_cycle;Max_cycle;Signal;HPM_P1;HPM_P2
2022/09/03 00:01:50;;;;;;;2.13;0.80;;;;;;;20.61;nan;100058.22;5011238;28;20486;-66
2022/09/03 00:04:34;;;;;;;1.52;0.73;;;;;;;20.63;nan;100058.81;5020876;28;20407;-66
2022/09/03 00:07:05;;;;;;;1.00;0.70;;;;;;;20.63;nan;100058.81;5030441;28;20034;-67
2022/09/03 00:09:38;;;;;;;1.52;0.98;;;;;;;20.62;nan;100059.03;5030069;28;20048;-66
2022/09/03 00:12:15;;;;;;;1.52;1.00;;;;;;;20.69;nan;100059.75;5029930;28;20038;-66
2022/09/03 00:14:54;;;;;;;1.65;0.90;;;;;;;20.65;nan;100053.22;5029166;28;20030;-66
2022/09/03 00:17:26;;;;;;;1.42;0.90;;;;;;;20.63;nan;100058.00;5029312;28;20387;-66
2022/09/03 00:20:07;;;;;;;1.60;0.70;;;;;;;20.61;nan;100052.03;5032766;28;20038;-66
2022/09/03 00:22:38;;;;;;;1.48;0.80;;;;;;;20.66;nan;100060.22;5028584;28;20040;-66
2022/09/03 00:25:09;;;;;;;2.45;0.70;;;;;;;20.62;nan;100051.81;5030396;28;20029;-66
2022/09/03 00:27:39;;;;;;;1.65;0.80;;;;;;;20.62;nan;100046.44;5025256;28;20044;-66
2022/09/03 00:30:10;;;;;;;1.92;0.80;;;;;;;20.58;nan;100040.69;5031187;28;20110;-66
2022/09/03 00:32:46;;;;;;;1.20;0.80;;;;;;;20.57;nan;100046.31;5031186;28;20045;-66
2022/09/03 00:35:34;;;;;;;1.30;0.80;;;;;;;20.54;nan;100034.09;5031860;28;20045;-66
2022/09/03 00:37:59;;;;;;;1.38;0.80;;;;;;;20.54;nan;100033.28;5025760;28;20037;-66
2022/09/03 00:40:44;;;;;;;3.00;0.90;;;;;;;20.53;nan;100027.09;5025620;28;20949;-66
2022/09/03 00:43:33;;;;;;;2.22;0.95;;;;;;;20.53;nan;100026.28;5031237;28;20562;-66
2022/09/03 00:46:14;;;;;;;0.82;0.73;;;;;;;20.52;nan;100021.94;5028848;28;20037;-66
2022/09/03 00:49:17;;;;;;;2.63;1.00;;;;;;;20.48;nan;100029.66;5027974;28;20403;-66
2022/09/03 00:52:05;;;;;;;3.53;1.10;;;;;;;20.46;nan;100028.25;5025415;28;20050;-66
2022/09/03 00:54:55;;;;;;;1.63;0.90;;;;;;;20.46;nan;100029.06;5027313;28;20501;-66
2022/09/03 00:57:24;;;;;;;1.20;0.80;;;;;;;20.45;nan;100024.75;5030503;28;20087;-66
2022/09/03 01:00:12;;;;;;;1.90;0.85;;;;;;;20.43;nan;100018.78;5027395;28;20029;-66
2022/09/03 01:02:56;;;;;;;1.67;0.80;;;;;;;20.47;nan;100021.81;5026141;28;20038;-66
2022/09/03 01:05:38;;;;;;;2.03;1.00;;;;;;;20.47;nan;100014.59;5022161;28;20051;-66
2022/09/03 01:08:15;;;;;;;1.60;0.90;;;;;;;20.46;nan;100017.50;5029522;28;20096;-67
2022/09/03 01:11:19;;;;;;;1.05;0.70;;;;;;;20.40;nan;100018.41;5026105;28;20041;-66
2022/09/03 01:13:53;;;;;;;1.67;0.90;;;;;;;20.39;nan;100016.78;5031439;28;20176;-66
2022/09/03 01:16:29;;;;;;;1.50;0.80;;;;;;;20.35;nan;100013.72;5028592;28;20048;-66
2022/09/03 01:19:14;;;;;;;2.72;0.73;;;;;;;20.35;nan;100016.41;5028578;28;20052;-66
2022/09/03 01:22:04;;;;;;;1.40;0.75;;;;;;;20.32;nan;100014.19;5011725;28;20041;-67
2022/09/03 01:24:30;;;;;;;2.33;0.70;;;;;;;20.27;nan;100024.81;5023336;28;20041;-67
2022/09/03 01:27:17;;;;;;;1.42;0.70;;;;;;;20.26;nan;100028.53;5027070;28;20041;-67
2022/09/03 01:30:05;;;;;;;1.25;0.73;;;;;;;20.24;nan;100030.63;5024092;28;20076;-67
2022/09/03 01:32:45;;;;;;;1.50;0.80;;;;;;;20.14;nan;100037.38;5027252;28;20041;-67
2022/09/03 01:35:33;;;;;;;1.70;0.70;;;;;;;19.88;nan;100041.19;5027723;28;20533;-67
2022/09/03 01:38:11;;;;;;;2.58;0.90;;;;;;;19.88;nan;100049.25;5025171;28;20076;-67
2022/09/03 01:43:59;;;;;;;2.75;1.08;;;;;;;19.83;nan;100051.78;5023733;28;20107;-67
2022/09/03 01:46:29;;;;;;;2.45;0.80;;;;;;;19.82;nan;100055.50;5026923;28;20060;-67
2022/09/03 01:49:04;;;;;;;2.42;0.85;;;;;;;19.87;nan;100057.50;5026069;28;20120;-67
2022/09/03 01:51:31;;;;;;;1.20;0.80;;;;;;;19.90;nan;100052.53;5022787;28;20064;-67
2022/09/03 01:54:05;;;;;;;1.52;0.70;;;;;;;19.87;nan;100052.16;5024404;28;20065;-67
2022/09/03 01:56:40;;;;;;;1.10;0.70;;;;;;;19.83;nan;100050.94;5027996;28;20040;-67
2022/09/03 01:59:14;;;;;;;0.90;0.68;;;;;;;19.80;nan;100054.91;5028938;28;20445;-67
2022/09/03 02:01:49;;;;;;;0.60;0.50;;;;;;;19.80;nan;100054.91;5025449;28;20035;-67
2022/09/03 02:04:22;;;;;;;1.27;0.80;;;;;;;19.78;nan;100056.16;5032717;28;20461;-67
2022/09/03 02:06:49;;;;;;;1.05;0.63;;;;;;;19.77;nan;100052.69;5027183;28;20033;-67
2022/09/03 02:09:16;;;;;;;1.55;0.93;;;;;;;19.79;nan;100055.97;5019759;28;20037;-67
2022/09/03 02:11:45;;;;;;;1.23;0.70;;;;;;;19.78;nan;100054.31;5035601;28;20075;-67
2022/09/03 02:14:11;;;;;;;1.50;0.70;;;;;;;19.78;nan;100054.31;5028069;28;20033;-66
2022/09/03 02:16:37;;;;;;;1.30;0.70;;;;;;;19.73;nan;100051.47;5026184;28;20034;-67
2022/09/03 02:19:09;;;;;;;1.25;0.70;;;;;;;19.73;nan;100057.69;5030733;28;20048;-66
2022/09/03 02:21:38;;;;;;;0.60;0.50;;;;;;;19.71;nan;100057.09;5025245;28;20095;-66
2022/09/03 02:24:04;;;;;;;0.93;0.60;;;;;;;19.69;nan;100069.91;5023934;28;20178;-66
2022/09/03 02:26:29;;;;;;;0.90;0.60;;;;;;;19.64;nan;100068.88;5035278;28;20060;-66
2022/09/03 02:28:56;;;;;;;1.45;0.80;;;;;;;19.58;nan;100064.41;5028056;28;20042;-66
2022/09/03 02:31:22;;;;;;;1.15;0.73;;;;;;;19.57;nan;100058.22;5029975;28;20518;-66
2022/09/03 02:33:49;;;;;;;1.05;0.70;;;;;;;19.58;nan;100064.41;5025588;28;20034;-66
2022/09/03 02:36:19;;;;;;;1.25;0.70;;;;;;;19.56;nan;100061.13;5024738;28;20430;-66
2022/09/03 02:38:45;;;;;;;1.60;0.73;;;;;;;19.58;nan;100069.78;5024505;28;20088;-66
2022/09/03 02:41:13;;;;;;;1.77;0.60;;;;;;;19.58;nan;100065.22;5025588;28;20640;-66
2022/09/03 02:44:05;;;;;;;0.82;0.70;;;;;;;19.57;nan;100062.75;5027872;28;20309;-66
2022/09/03 02:46:49;;;;;;;1.40;0.90;;;;;;;19.51;nan;100064.47;5028909;28;20037;-66
2022/09/03 02:49:14;;;;;;;2.20;1.00;;;;;;;19.49;nan;100066.56;5035513;28;20036;-66
2022/09/03 02:51:43;;;;;;;1.58;0.77;;;;;;;19.46;nan;100067.81;5031138;28;20306;-66
2022/09/03 02:54:10;;;;;;;1.30;0.88;;;;;;;19.47;nan;100068.63;5025830;28;20083;-66
2022/09/03 02:56:36;;;;;;;1.85;0.80;;;;;;;19.44;nan;100066.41;5028027;28;20061;-66
2022/09/03 02:59:03;;;;;;;1.15;0.80;;;;;;;19.46;nan;100067.00;5030478;28;20517;-66
2022/09/03 03:01:28;;;;;;;1.83;0.70;;;;;;;19.41;nan;100064.97;5032047;28;20053;-66
2022/09/03 03:03:54;;;;;;;1.10;0.82;;;;;;;19.40;nan;100059.84;5029289;28;20072;-66
2022/09/03 03:06:19;;;;;;;1.13;0.80;;;;;;;19.33;nan;100062.59;5032149;28;20041;-67
2022/09/03 03:08:45;;;;;;;1.48;0.77;;;;;;;19.26;nan;100062.66;5030708;28;20041;-66
2022/09/03 03:11:11;;;;;;;1.30;0.80;;;;;;;19.22;nan;100052.59;5037259;28;20033;-66
2022/09/03 03:13:37;;;;;;;1.77;0.82;;;;;;;19.25;nan;100054.81;5035103;28;20036;-66
2022/09/03 03:16:07;;;;;;;1.30;0.80;;;;;;;19.27;nan;100052.75;5043180;28;20058;-67
2022/09/03 03:18:33;;;;;;;1.88;0.73;;;;;;;19.31;nan;100045.91;5034276;28;20091;-65
2022/09/03 03:21:07;;;;;;;1.50;0.90;;;;;;;19.35;nan;100048.97;5027971;28;20042;-65
2022/09/03 03:23:34;;;;;;;1.40;0.90;;;;;;;19.36;nan;100047.94;5029951;28;20120;-65
2022/09/03 03:26:01;;;;;;;1.08;0.70;;;;;;;19.41;nan;100053.44;5029139;28;20096;-65
2022/09/03 03:28:26;;;;;;;1.85;0.80;;;;;;;19.43;nan;100048.69;5027792;28;20510;-65
2022/09/03 03:30:52;;;;;;;1.00;0.70;;;;;;;19.41;nan;100048.09;5035027;28;20048;-65
2022/09/03 03:33:17;;;;;;;1.67;0.80;;;;;;;19.39;nan;100048.28;5028881;28;20049;-65
2022/09/03 03:35:42;;;;;;;1.20;0.70;;;;;;;19.38;nan;100056.56;5033021;28;20290;-65
2022/09/03 03:38:08;;;;;;;0.95;0.70;;;;;;;19.33;nan;100054.56;5033637;28;20654;-66
2022/09/03 03:40:33;;;;;;;1.00;0.57;;;;;;;19.25;nan;100042.22;5028161;28;20056;-65
2022/09/03 03:42:58;;;;;;;2.08;1.10;;;;;;;19.13;nan;100057.41;5029105;28;20042;-65
2022/09/03 03:45:24;;;;;;;2.17;0.88;;;;;;;19.05;nan;100069.22;5028330;28;20064;-65
2022/09/03 03:47:49;;;;;;;1.05;0.77;;;;;;;19.00;nan;100062.88;5029923;28;20129;-65
2022/09/03 03:50:15;;;;;;;1.52;0.82;;;;;;;18.97;nan;100064.13;5028467;28;20033;-65
2022/09/03 03:52:41;;;;;;;2.28;0.75;;;;;;;18.99;nan;100059.38;5032586;28;20037;-65
2022/09/03 03:55:06;;;;;;;0.70;0.60;;;;;;;19.05;nan;100063.88;5031378;28;20383;-65
2022/09/03 03:57:32;;;;;;;0.95;0.70;;;;;;;19.09;nan;100062.41;5032072;28;20052;-65
2022/09/03 03:59:57;;;;;;;1.63;0.70;;;;;;;19.07;nan;100050.25;5029850;28;20267;-65
2022/09/03 04:02:22;;;;;;;1.35;0.90;;;;;;;19.08;nan;100055.38;5030582;28;20041;-65
2022/09/03 04:04:47;;;;;;;1.00;0.70;;;;;;;19.08;nan;100059.91;5027936;28;20522;-65
2022/09/03 04:07:13;;;;;;;1.52;0.80;;;;;;;19.07;nan;100058.28;5034235;28;20046;-65
2022/09/03 04:09:38;;;;;;;2.55;0.70;;;;;;;19.10;nan;100063.22;5029076;28;20032;-65
2022/09/03 04:12:07;;;;;;;1.30;0.70;;;;;;;19.13;nan;100056.59;5030326;28;20371;-65
2022/09/03 04:14:34;;;;;;;1.25;0.77;;;;;;;19.13;nan;100070.00;5032358;28;20034;-65
2022/09/03 04:17:00;;;;;;;1.83;0.90;;;;;;;19.14;nan;100063.56;5028242;28;20041;-65
2022/09/03 04:19:28;;;;;;;1.63;0.65;;;;;;;19.10;nan;100055.16;5028538;28;20576;-65
2022/09/03 04:21:53;;;;;;;1.42;0.90;;;;;;;19.13;nan;100059.25;5026817;28;20187;-65
2022/09/03 04:24:19;;;;;;;1.65;0.80;;;;;;;19.14;nan;100059.06;5027771;28;20506;-65
2022/09/03 04:26:44;;;;;;;1.27;0.80;;;;;;;19.15;nan;100054.50;5026674;28;20029;-65
2022/09/03 04:29:09;;;;;;;1.52;0.88;;;;;;;19.16;nan;100056.94;5030005;28;20796;-65
2022/09/03 04:31:37;;;;;;;1.70;1.00;;;;;;;19.17;nan;100057.78;5031674;28;20037;-65
2022/09/03 04:34:05;;;;;;;1.50;0.88;;;;;;;19.15;nan;100059.88;5032934;28;20045;-66
2022/09/03 04:36:31;;;;;;;1.45;0.90;;;;;;;19.15;nan;100060.69;5028788;28;20087;-65
2022/09/03 04:38:59;;;;;;;1.48;0.80;;;;;;;19.17;nan;100053.25;5028672;28;20037;-65
2022/09/03 04:41:26;;;;;;;2.85;1.00;;;;;;;19.18;nan;100054.88;5028274;28;20055;-65
2022/09/03 04:43:53;;;;;;;1.63;0.90;;;;;;;19.22;nan;100058.75;5027386;28;20518;-65
2022/09/03 04:46:19;;;;;;;1.60;0.98;;;;;;;19.25;nan;100054.81;5033859;28;20033;-65
2022/09/03 04:48:53;;;;;;;1.63;1.00;;;;;;;19.28;nan;100065.09;5033784;28;20037;-65
2022/09/03 04:51:26;;;;;;;1.73;0.90;;;;;;;19.29;nan;100074.78;5033703;28;20040;-65
2022/09/03 04:53:57;;;;;;;2.88;0.98;;;;;;;19.31;nan;100075.41;5032218;28;20029;-65
2022/09/03 04:56:30;;;;;;;1.17;0.90;;;;;;;19.33;nan;100078.69;5030141;28;20127;-65
2022/09/03 04:59:01;;;;;;;1.92;0.95;;;;;;;19.36;nan;100082.78;5028047;28;20167;-65
2022/09/03 05:01:29;;;;;;;1.98;1.00;;;;;;;19.38;nan;100084.22;5026973;28;20116;-66
2022/09/03 05:03:56;;;;;;;1.70;0.90;;;;;;;19.41;nan;100085.63;5030304;28;20065;-65
2022/09/03 05:06:23;;;;;;;1.40;0.80;;;;;;;19.19;nan;100088.69;5028079;28;20417;-65
2022/09/03 05:08:50;;;;;;;2.40;0.95;;;;;;;18.52;nan;100088.31;5027585;28;20038;-66
2022/09/03 05:11:15;;;;;;;2.33;1.23;;;;;;;17.88;nan;100076.66;5038269;28;20041;-65
2022/09/03 05:13:40;;;;;;;2.33;1.10;;;;;;;17.65;nan;100089.63;5028959;28;20091;-65
2022/09/03 05:16:10;;;;;;;1.98;1.10;;;;;;;17.70;nan;100089.81;5030561;28;20030;-69
2022/09/03 05:18:36;;;;;;;1.48;1.10;;;;;;;17.66;nan;100093.94;5029324;28;20120;-66
2022/09/03 05:21:04;;;;;;;1.77;0.95;;;;;;;17.49;nan;100091.69;5027797;28;20595;-65
2022/09/03 05:23:31;;;;;;;2.40;1.25;;;;;;;17.07;nan;100091.13;5030570;28;20044;-66
2022/09/03 05:25:58;;;;;;;1.45;1.10;;;;;;;16.75;nan;100092.69;5024771;28;21073;-65
2022/09/03 05:28:26;;;;;;;2.05;1.15;;;;;;;16.60;nan;100094.72;5026827;28;20033;-66
2022/09/03 05:31:03;;;;;;;1.60;1.00;;;;;;;16.53;nan;100100.03;5031459;28;20402;-66
2022/09/03 05:33:28;;;;;;;1.55;1.10;;;;;;;16.42;nan;100106.78;5023690;28;20041;-66
2022/09/03 05:36:01;;;;;;;2.15;0.95;;;;;;;16.46;nan;100104.53;5031440;28;20043;-66
2022/09/03 05:38:26;;;;;;;1.35;0.90;;;;;;;16.69;nan;100106.84;5022771;28;20076;-66
2022/09/03 05:40:51;;;;;;;2.55;1.00;;;;;;;16.93;nan;100098.28;5026987;28;20034;-66
2022/09/03 05:43:16;;;;;;;1.20;0.90;;;;;;;17.12;nan;100103.88;5035500;28;20051;-66
2022/09/03 05:45:42;;;;;;;2.10;1.05;;;;;;;17.25;nan;100109.19;5027455;28;20120;-66
2022/09/03 05:48:07;;;;;;;1.80;0.95;;;;;;;17.39;nan;100105.50;5033495;28;20048;-65
2022/09/03 05:50:32;;;;;;;1.90;1.10;;;;;;;17.49;nan;100107.75;5034107;28;20046;-66
2022/09/03 05:52:58;;;;;;;1.98;1.08;;;;;;;17.58;nan;100109.16;5032730;28;20288;-66
2022/09/03 05:55:23;;;;;;;1.77;0.93;;;;;;;17.53;nan;100114.31;5028498;28;20117;-66
2022/09/03 05:57:51;;;;;;;1.40;1.00;;;;;;;17.66;nan;100116.16;5027272;28;20434;-66
2022/09/03 06:00:18;;;;;;;1.60;1.13;;;;;;;17.74;nan;100117.81;5027697;28;20037;-66
2022/09/03 06:02:49;;;;;;;1.20;1.00;;;;;;;17.88;nan;100124.78;5027273;28;20604;-66
2022/09/03 06:05:15;;;;;;;1.55;1.00;;;;;;;18.01;nan;100129.28;5032659;28;20099;-66
2022/09/03 06:07:41;;;;;;;2.30;1.00;;;;;;;18.15;nan;100136.22;5028054;28;20038;-66
2022/09/03 06:10:06;;;;;;;1.25;0.80;;;;;;;18.28;nan;100135.34;5021577;28;20037;-66
2022/09/03 06:12:32;;;;;;;1.15;0.80;;;;;;;18.43;nan;100141.28;5036036;28;20037;-66
2022/09/03 06:14:57;;;;;;;1.48;0.80;;;;;;;18.56;nan;100144.91;5037875;28;20133;-66
2022/09/03 06:17:23;;;;;;;1.10;0.70;;;;;;;18.68;nan;100146.69;5025749;28;20078;-66
2022/09/03 06:19:48;;;;;;;0.88;0.70;;;;;;;18.81;nan;100148.53;5033599;28;20376;-66
2022/09/03 06:22:13;;;;;;;0.68;0.60;;;;;;;19.02;nan;100143.84;5033027;28;20049;-66
2022/09/03 06:24:38;;;;;;;1.35;0.80;;;;;;;19.20;nan;100145.81;5031457;28;20233;-66
2022/09/03 06:27:04;;;;;;;0.90;0.70;;;;;;;19.46;nan;100144.78;5029084;28;20579;-66
2022/09/03 06:29:29;;;;;;;1.03;0.80;;;;;;;19.71;nan;100142.94;5028410;28;20288;-66
2022/09/03 06:31:55;;;;;;;1.15;0.90;;;;;;;19.90;nan;100162.56;5027245;28;20307;-66
2022/09/03 06:34:21;;;;;;;1.75;1.00;;;;;;;20.02;nan;100159.13;5029168;28;20041;-66
2022/09/03 06:36:47;;;;;;;1.63;0.98;;;;;;;20.05;nan;100162.19;5031896;28;20030;-66
2022/09/03 06:39:12;;;;;;;0.88;0.70;;;;;;;20.13;nan;100169.94;5031880;28;20036;-66
2022/09/03 06:41:38;;;;;;;1.25;0.80;;;;;;;20.20;nan;100169.06;5030720;28;20513;-66
2022/09/03 06:44:10;;;;;;;1.20;0.80;;;;;;;20.18;nan;100166.56;5030417;28;20416;-66
2022/09/03 06:46:37;;;;;;;1.95;0.90;;;;;;;20.06;nan;100158.44;5033231;28;20032;-67
2022/09/03 06:49:03;;;;;;;2.38;0.90;;;;;;;19.97;nan;100165.16;5030563;28;20029;-67
2022/09/03 06:51:31;;;;;;;1.13;0.80;;;;;;;19.39;nan;100173.50;5028230;28;20482;-67
2022/09/03 06:54:05;;;;;;;1.20;0.70;;;;;;;18.86;nan;100169.31;5029100;28;20026;-67
2022/09/03 06:56:31;;;;;;;1.48;0.80;;;;;;;18.63;nan;100175.16;5035270;28;20085;-67
2022/09/03 06:58:58;;;;;;;2.05;0.90;;;;;;;18.46;nan;100175.66;5030305;28;20506;-67
2022/09/03 07:01:29;;;;;;;1.13;0.82;;;;;;;18.33;nan;100178.38;5031846;28;20029;-67
2022/09/03 07:03:57;;;;;;;0.93;0.70;;;;;;;18.37;nan;100168.88;5029752;28;20503;-67
2022/09/03 07:06:24;;;;;;;1.30;0.70;;;;;;;18.33;nan;100165.00;5030161;28;20051;-68
2022/09/03 07:08:50;;;;;;;1.10;0.90;;;;;;;18.35;nan;100162.94;5026429;28;20033;-67
2022/09/03 07:11:21;;;;;;;1.90;0.90;;;;;;;18.30;nan;100162.72;5028981;28;20726;-67
2022/09/03 07:13:48;;;;;;;1.15;0.70;;;;;;;18.22;nan;100162.97;5026850;28;20124;-67
2022/09/03 07:16:19;;;;;;;2.08;1.10;;;;;;;18.08;nan;100161.38;5030385;28;20061;-67
2022/09/03 07:18:45;;;;;;;1.42;0.95;;;;;;;18.09;nan;100163.00;5031307;28;20468;-67
2022/09/03 07:21:18;;;;;;;1.30;0.90;;;;;;;18.04;nan;100172.50;5027880;28;20040;-67
2022/09/03 07:23:43;;;;;;;1.23;0.85;;;;;;;18.00;nan;100176.63;5027000;28;20815;-68
2022/09/03 07:26:14;;;;;;;1.10;0.80;;;;;;;18.06;nan;100180.31;5030084;28;20041;-68
2022/09/03 07:28:42;;;;;;;1.40;0.93;;;;;;;17.77;nan;100174.34;5027413;28;20038;-68
2022/09/03 07:31:10;;;;;;;1.33;0.90;;;;;;;17.81;nan;100185.50;5028038;28;20173;-68
2022/09/03 07:33:37;;;;;;;1.95;1.25;;;;;;;17.88;nan;100180.97;5038080;28;20044;-67
2022/09/03 07:36:05;;;;;;;2.42;1.38;;;;;;;17.88;nan;100189.00;5027720;28;20375;-68
2022/09/03 07:38:31;;;;;;;2.50;1.40;;;;;;;17.59;nan;100192.88;5032728;28;20037;-68
2022/09/03 07:40:58;;;;;;;2.38;1.33;;;;;;;17.47;nan;100194.50;5028326;28;20036;-68
2022/09/03 07:43:28;;;;;;;3.10;1.65;;;;;;;17.37;nan;100203.75;5032313;28;20506;-69
2022/09/03 07:45:54;;;;;;;3.20;1.90;;;;;;;17.26;nan;100208.91;5026705;28;20344;-69
2022/09/03 07:48:20;;;;;;;3.85;1.70;;;;;;;17.12;nan;100200.84;5034609;28;20050;-69
2022/09/03 07:50:46;;;;;;;2.47;1.55;;;;;;;17.10;nan;100212.78;5031027;28;20094;-70
2022/09/03 07:53:12;;;;;;;;;;;;;;;17.09;nan;100214.63;5026903;28;20042;-70
2022/09/03 07:55:37;;;;;;;2.43;1.50;;;;;;;17.16;nan;100217.28;5034905;28;20267;-70
2022/09/03 07:58:02;;;;;;;2.90;1.45;;;;;;;17.25;nan;100213.41;5027356;28;20664;-72
2022/09/03 08:00:28;;;;;;;2.13;1.52;;;;;;;17.28;nan;100210.34;5032025;28;20345;-71
2022/09/03 08:02:53;;;;;;;2.28;1.60;;;;;;;17.12;nan;100214.22;5030330;28;20068;-70
2022/09/03 08:05:20;;;;;;;3.10;1.80;;;;;;;17.13;nan;100215.03;5034145;28;20040;-71
2022/09/03 08:07:45;;;;;;;3.67;1.92;;;;;;;17.07;nan;100210.53;5035155;28;20037;-70
2022/09/03 08:10:12;;;;;;;2.85;1.90;;;;;;;17.06;nan;100212.34;5033197;28;20030;-71
2022/09/03 08:12:38;;;;;;;4.50;2.20;;;;;;;17.04;nan;100214.41;5040451;28;20049;-70
2022/09/03 08:15:04;;;;;;;7.65;3.05;;;;;;;17.07;nan;100206.00;5035771;28;20049;-70
2022/09/03 08:17:29;;;;;;;3.33;2.05;;;;;;;17.07;nan;100199.84;5032121;28;20220;-70
2022/09/03 08:19:56;;;;;;;4.22;2.03;;;;;;;16.89;nan;100192.38;5037710;28;20143;-70
2022/09/03 08:22:21;;;;;;;4.47;2.50;;;;;;;16.66;nan;100180.16;5038596;28;21692;-71
2022/09/03 08:24:47;;;;;;;3.78;1.95;;;;;;;16.57;nan;100168.03;5029731;28;20041;-70
2022/09/03 08:27:12;;;;;;;3.67;2.20;;;;;;;16.44;nan;100160.75;5039988;28;20044;-70
2022/09/03 08:29:38;;;;;;;2.72;1.88;;;;;;;16.33;nan;100164.03;5036061;28;20057;-71
2022/09/03 08:32:04;;;;;;;2.63;2.03;;;;;;;16.34;nan;100166.47;5031517;28;20136;-71
2022/09/03 08:34:29;;;;;;;4.30;2.22;;;;;;;16.34;nan;100171.00;5031477;28;20038;-71
2022/09/03 08:36:54;;;;;;;3.92;2.40;;;;;;;16.27;nan;100170.94;5030435;28;20615;-71
2022/09/03 08:39:19;;;;;;;3.13;2.17;;;;;;;16.23;nan;100175.06;5030550;28;20065;-71
2022/09/03 08:42:04;;;;;;;2.78;2.10;;;;;;;16.13;nan;100172.72;5030198;28;20086;-71
2022/09/03 08:44:31;;;;;;;3.40;2.00;;;;;;;16.19;nan;100178.31;5032208;28;20136;-71
2022/09/03 08:47:05;;;;;;;4.10;2.17;;;;;;;16.18;nan;100190.81;5032495;28;20367;-71
2022/09/03 08:49:42;;;;;;;3.22;1.80;;;;;;;16.21;nan;100192.25;5031970;28;20076;-69
2022/09/03 08:52:23;;;;;;;4.78;2.42;;;;;;;16.21;nan;100203.78;5032576;28;20026;-70
2022/09/03 08:54:50;;;;;;;4.53;2.43;;;;;;;16.20;nan;100220.78;5032493;28;20040;-71
2022/09/03 08:57:19;;;;;;;3.28;2.00;;;;;;;16.30;nan;100228.44;5032460;28;20563;-69
2022/09/03 08:59:45;;;;;;;4.18;2.08;;;;;;;16.40;nan;100233.41;5031763;28;20060;-70
2022/09/03 09:02:49;;;;;;;2.80;1.80;;;;;;;16.62;nan;100234.16;5031065;28;20033;-70
2022/09/03 09:05:22;;;;;;;4.18;1.70;;;;;;;16.94;nan;100259.34;5030499;28;20048;-70
2022/09/03 09:08:11;;;;;;;2.85;1.52;;;;;;;17.08;nan;100257.56;5030160;28;20057;-70
2022/09/03 09:10:45;;;;;;;2.65;1.90;;;;;;;17.19;nan;100265.00;5024329;28;20045;-70
2022/09/03 09:13:33;;;;;;;1.92;1.60;;;;;;;17.47;nan;100261.34;5039877;28;20096;-70
2022/09/03 09:16:39;;;;;;;1.98;1.50;;;;;;;17.69;nan;100260.16;5024207;28;20409;-70
2022/09/03 09:19:26;;;;;;;2.42;1.90;;;;;;;17.76;nan;100262.84;5021517;28;20557;-70
2022/09/03 09:21:59;;;;;;;3.22;1.80;;;;;;;17.91;nan;100271.50;5010656;28;20557;-69
2022/09/03 09:24:27;;;;;;;3.15;1.50;;;;;;;18.06;nan;100273.13;5008719;28;20041;-69
2022/09/03 09:26:58;;;;;;;2.15;1.27;;;;;;;18.18;nan;100279.50;5017983;28;20566;-70
2022/09/03 09:29:30;;;;;;;4.43;2.13;;;;;;;18.00;nan;100283.63;5008694;28;20050;-70
2022/09/03 09:31:55;;;;;;;;;;;;;;;17.82;nan;100281.56;5007241;28;20037;-70
2022/09/03 09:34:20;;;;;;;2.75;1.90;;;;;;;17.80;nan;100272.06;5008589;28;19921;-70
2022/09/03 09:36:49;;;;;;;2.90;1.70;;;;;;;17.85;nan;100268.81;5015138;28;20033;-69
2022/09/03 09:39:15;;;;;;;3.30;1.63;;;;;;;18.02;nan;100267.38;5028957;28;20040;-70
2022/09/03 09:41:41;;;;;;;3.85;2.80;;;;;;;18.05;nan;100266.97;5026973;28;20030;-70
2022/09/03 09:44:07;;;;;;;3.35;2.05;;;;;;;18.07;nan;100272.09;5028542;28;20048;-70
2022/09/03 09:46:39;;;;;;;4.25;2.80;;;;;;;18.18;nan;100271.47;5029559;28;20034;-70
2022/09/03 09:49:37;;;;;;;5.55;2.58;;;;;;;18.46;nan;100265.84;5029786;28;20060;-70
2022/09/03 09:52:07;;;;;;;3.25;2.50;;;;;;;18.88;nan;100261.03;5023464;28;20570;-70
2022/09/03 09:54:32;;;;;;;;;;;;;;;19.99;nan;100259.69;5009317;28;20402;-70
2022/09/03 09:57:01;;;;;;;3.58;2.60;;;;;;;21.75;nan;100257.13;5016358;28;19955;-70
2022/09/03 09:59:27;;;;;;;2.17;1.85;;;;;;;22.35;nan;100255.28;5024156;28;20455;-69
2022/09/03 10:02:03;;;;;;;;;;;;;;;23.63;nan;100260.47;5029606;28;20116;-70
2022/09/03 10:04:30;;;;;;;3.95;2.50;;;;;;;23.71;nan;100266.25;5022762;28;20003;-70
2022/09/03 10:07:02;;;;;;;3.78;2.40;;;;;;;24.00;nan;100258.09;5024033;28;20493;-70
2022/09/03 10:09:31;;;;;;;;;;;;;;;23.61;nan;100259.88;5024089;28;20072;-70
2022/09/03 10:12:18;;;;;;;3.53;2.22;;;;;;;23.98;nan;100262.09;5027451;28;19928;-69
2022/09/03 10:14:50;;;;;;;4.55;2.60;;;;;;;24.25;nan;100259.56;5029226;28;20030;-69
2022/09/03 10:17:27;;;;;;;2.83;2.03;;;;;;;25.41;nan;100255.81;5031578;28;20044;-69
2022/09/03 10:20:26;;;;;;;3.92;2.40;;;;;;;24.71;nan;100260.16;5033972;28;20029;-69
2022/09/03 10:22:56;;;;;;;;;;;;;;;24.73;nan;100253.44;4997945;28;20045;-70
2022/09/03 10:25:25;;;;;;;4.78;2.22;;;;;;;25.39;nan;100252.56;4995373;28;20009;-69
2022/09/03 10:27:53;;;;;;;3.78;2.05;;;;;;;26.58;nan;100246.91;5006125;28;20053;-69
2022/09/03 10:30:19;;;;;;;2.38;1.83;;;;;;;27.18;nan;100239.19;5004345;28;20089;-70
2022/09/03 10:32:48;;;;;;;2.13;1.40;;;;;;;28.22;nan;100245.19;5005642;28;20684;-70
2022/09/03 10:35:28;;;;;;;2.67;1.60;;;;;;;29.57;nan;100238.75;5006193;28;20161;-69
2022/09/03 10:38:21;;;;;;;2.60;1.50;;;;;;;30.44;nan;100241.47;5004579;28;20056;-69
2022/09/03 10:40:52;;;;;;;2.10;1.17;;;;;;;30.78;nan;100242.41;5010553;28;20038;-69
2022/09/03 10:43:53;;;;;;;2.35;1.40;;;;;;;31.46;nan;100231.06;5011902;28;20030;-69
2022/09/03 10:46:28;;;;;;;1.60;1.30;;;;;;;32.08;nan;100225.31;5014107;28;20144;-69
2022/09/03 10:49:02;;;;;;;1.73;1.10;;;;;;;31.85;nan;100216.16;5011743;28;20070;-69
2022/09/03 10:51:34;;;;;;;3.35;1.70;;;;;;;31.53;nan;100219.72;5014575;28;20491;-69
2022/09/03 10:54:23;;;;;;;3.33;1.15;;;;;;;32.63;nan;100216.28;4997652;28;20042;-69
2022/09/03 10:57:06;;;;;;;1.50;1.00;;;;;;;33.14;nan;100226.13;5003553;28;20030;-69
2022/09/03 10:59:50;;;;;;;2.65;1.30;;;;;;;33.94;nan;100217.25;5010599;28;20137;-69
2022/09/03 11:02:21;;;;;;;2.28;1.20;;;;;;;34.48;nan;100210.50;5005908;28;20030;-69
2022/09/03 11:05:08;;;;;;;2.25;1.27;;;;;;;35.26;nan;100217.25;5003486;28;20061;-69
2022/09/03 11:07:59;;;;;;;1.75;1.10;;;;;;;35.53;nan;100216.84;5008416;28;20436;-69
2022/09/03 11:10:28;;;;;;;1.52;1.00;;;;;;;36.74;nan;100222.97;5006265;28;20037;-69
2022/09/03 11:12:56;;;;;;;1.70;1.10;;;;;;;37.17;nan;100160.38;5008298;28;20137;-69
2022/09/03 11:15:58;;;;;;;2.17;1.20;;;;;;;37.51;nan;100141.84;5011166;28;20038;-69
2022/09/03 11:18:47;;;;;;;1.45;0.98;;;;;;;38.11;nan;100147.75;5001188;28;20041;-69
2022/09/03 11:21:19;;;;;;;2.42;0.90;;;;;;;38.37;nan;100150.91;5006474;28;20034;-69
2022/09/03 11:23:49;;;;;;;1.80;1.00;;;;;;;38.93;nan;100136.41;5011328;28;20027;-70
2022/09/03 11:26:18;;;;;;;1.33;0.85;;;;;;;40.07;nan;100129.38;5013459;28;20473;-69
2022/09/03 11:28:44;;;;;;;0.93;0.80;;;;;;;40.25;nan;100130.63;5009063;28;20976;-69
2022/09/03 11:31:31;;;;;;;;;;;;;;;40.07;nan;100132.16;5009791;28;20045;-69
2022/09/03 11:34:04;;;;;;;;;;;;;;;40.60;nan;100131.75;5015842;28;19921;-69
2022/09/03 11:36:31;;;;;;;;;;;;;;;38.73;nan;100129.09;5022987;28;19917;-70
2022/09/03 11:38:56;;;;;;;;;;;;;;;36.18;nan;100125.97;5021234;28;20171;-69
2022/09/03 11:41:26;;;;;;;;;;;;;;;34.60;nan;100113.81;5006762;28;19956;-69
2022/09/03 11:43:51;;;;;;;;;;;;;;;33.50;nan;100115.56;5019816;28;19917;-69
2022/09/03 11:46:20;;;;;;;;;;;;;;;32.52;nan;100113.63;5019313;28;20183;-69
2022/09/03 11:48:46;;;;;;;;;;;;;;;32.72;nan;100107.66;5011456;28;20210;-69
2022/09/03 11:51:23;;;;;;;;;;;;;;;34.05;nan;100123.38;5011473;28;20008;-69
2022/09/03 11:53:53;;;;;;;;;;;;;;;35.97;nan;100120.44;5013570;28;19920;-69
2022/09/03 11:56:18;;;;;;;;;;;;;;;36.46;nan;100109.75;5009737;28;19917;-69
2022/09/03 11:58:44;;;;;;;;;;;;;;;35.70;nan;100105.19;5014988;28;19978;-70
2022/09/03 12:01:10;;;;;;;;;;;;;;;34.50;nan;100103.13;5017890;28;19939;-69
2022/09/03 12:03:44;;;;;;;;;;;;;;;33.71;nan;100104.88;5020552;28;20389;-69
2022/09/03 12:06:27;;;;;;;1.15;0.80;;;;;;;33.25;nan;100184.75;5005503;28;20426;-69
2022/09/03 12:09:17;;;;;;;0.70;0.60;;;;;;;33.08;nan;100049.28;5004824;28;20405;-69